Tiempo atmosférico en la estación meteorológica de Viso Del Marqués, Ciudad Real (778 m.)



Fecha
DESCASC
Temp. máxima en grados centígrados (hora)
DESCASC
Temp. mínima en grados centígrados (hora)
DESCASC
Temp. media en grados centígrados
DESCASC
Racha de viento máxima en m/sg (hora)
DESCASC
Velocidad máxima media en intervalos de 10 minutos(hora)
DESCASC
Precipitaciones diarias en mm
DESCASC
Precipitaciones de 00:00 a 06:00 en mm
DESCASC
Precipitaciones de 06:00 a 12:00 en mm
DESCASC
Precipitaciones de 12:00 a 18:00 en mm
DESCASC
Precipitaciones de 18:00 a 24:00 en mm
DESCASC
22-01-2020 9.3 (13:50) -2.2 (07:30) 3.6 6.67 (16:40) 3.89 (14:00) 0 0 0 0 0
21-01-2020 1.8 (17:30) -2.2 (08:40) -0.2 10.28 (01:00) 6.67 (00:40) 1 0 0.9 0.1 0
20-01-2020 0.9 (17:30) -3.4 (11:50) -1.3 15.83 (17:20) 8.89 (18:10) 0 0 0 0 0
19-01-2020 6.7 (00:20) -2 (-00:0) 2.3 14.72 (00:20) 9.17 (15:50) 8.6 3.8 1.4 0.7 2.7
18-01-2020 7.6 (16:40) 2.3 (00:00) 4.9 10.83 (17:10) 7.5 (18:50) 2.5 0 2.5 0 0
17-01-2020 11.9 (14:20) 3.2 (00:00) 7.5 8.89 (11:10) 6.11 (10:50) 0 0 0 0 0
16-01-2020 12.2 (14:20) -1.1 (-00:0) 5.5 7.5 (16:40) 5.28 (16:30) 0 0 0 0 0
15-01-2020 11.1 (14:50) -0.7 (-00:0) 5.2 8.61 (13:00) 6.11 (13:00) 0 0 0 0 0
14-01-2020 9.2 (14:30) -4.3 (-00:0) 2.4 5.56 (17:00) 4.17 (16:20) 0 0 0 0 0
13-01-2020 9.7 (14:10) -4.3 (-00:0) 2.7 5.28 (14:20) 3.33 (14:20) 0 0 0 0 0
12-01-2020 10.4 (16:00) -3.9 (-00:0) 3.2 3.33 (17:00) 1.94 (15:10) 0 0 0 0 0
11-01-2020 9.5 (16:00) -5.1 (-00:0) 2.2 3.33 (15:00) 1.94 (01:10) 0 0 0 0 0
10-01-2020 6.6 (14:30) 0.1 (00:00) 3.3 10.83 (15:50) 7.22 (15:50) 0 0 0 0 0
09-01-2020 13 (16:20) -0.6 (-00:0) 6.2 4.72 (22:00) 3.33 (22:20) 0 0 0 0 0
08-01-2020 13.4 (12:30) -0.6 (-00:0) 6.4 2.5 (15:00) 1.67 (15:10) 0 0 0 0 0
07-01-2020 11.8 (16:10) -2.8 (-00:0) 4.5 3.06 (13:10) 1.94 (13:10) 0 0 0 0 0
06-01-2020 12.5 (15:20) -1.5 (-00:0) 5.5 3.61 (14:20) 2.22 (14:30) 0 0 0 0 0
05-01-2020 9.6 (16:50) -4.5 (-00:0) 2.6 3.06 (15:00) 1.67 (15:10) 0.1 0 0.1 0 0
04-01-2020 3.4 (00:20) -1.5 (-00:0) 1 4.44 (01:30) 2.78 (01:30) 0 0 0 0 0
03-01-2020 6.2 (16:20) -0.8 (-00:0) 2.7 3.33 (21:00) 2.5 (21:00) 0 0 0 0 0
02-01-2020 14.6 (15:30) -1.6 (-00:0) 6.5 2.78 (02:50) 2.22 (02:50) 0 0 0 0 0
01-01-2020 12.7 (15:20) -3.4 (-00:0) 4.6 2.5 (15:00) 1.67 (02:10) 0 0 0 0 0
31-12-2019 8.9 (15:00) -5.6 (-00:0) 1.6 3.89 (16:30) 3.06 (18:10) 0 0 0 0 0
30-12-2019 3.6 (15:30) -4.1 (-00:0) -0.3 2.78 (14:40) 1.39 (06:00) 0 0 0 0 0
29-12-2019 12.6 (15:00) -2.5 (-00:0) 5.1 3.33 (17:30) 2.22 (17:30) 0 0 0 0 0
28-12-2019 14.9 (14:20) -0.9 (-00:0) 7 3.61 (17:00) 2.5 (17:10) 0.1 0 0.1 0 0
27-12-2019 14.4 (15:30) 0.2 (00:00) 7.3 3.33 (09:00) 2.5 (09:00) 0 0 0 0 0
26-12-2019 12.6 (13:30) 4.3 (00:00) 8.5 5 (15:10) 3.61 (16:40) 0 0 0 0 0
25-12-2019 17.3 (14:50) 0.6 (00:00) 8.9 3.89 (15:10) 2.5 (16:00) 0.1 0 0.1 0 0

Gráficas

Temp. máximas Temp. mínimas Temp. medias Precipitaciones Rachas de viento máximas Velocidades máximas media en intervalos de 10 minutos

Datos horarios

Fecha y hora oficial Temperatura (ºC) Velocidad del viento (km/h) Dirección del viento Racha (km/h) Dirección de racha Precipitación (mm) Presión (hPa) Tendencia (hPa) Humedad (%)
2020-01-23 23:00:00 3.4 6 Este 14 Este 0 925.5 0.6 64
2020-01-23 22:00:00 3.1 5 Nordeste 9 Este 0 925.9 1.5 64
2020-01-23 21:00:00 4.2 3 Sur 4 Sur 0 925.4 1 60
2020-01-23 20:00:00 4.8 2 Sudoeste 4 Oeste 0 924.9 0.7 59
2020-01-23 19:00:00 6.3 3 Oeste 4 Sudoeste 0 924.4 0.5 49
2020-01-23 18:00:00 7.6 2 Sur 10 Sur 0 924.4 0.2 46
2020-01-23 17:00:00 7.8 6 Sudeste 14 Sudeste 0 924.2 -0.5 44
2020-01-23 16:00:00 7.5 10 Sudeste 16 Sur 0 923.9 -1.3 45
2020-01-23 15:00:00 8.1 10 Sudeste 14 Sudeste 0 924.2 -1.8 45
2020-01-23 14:00:00 8 8 Sudeste 15 Sudeste 0 924.7 -0.6 48
2020-01-23 13:00:00 7.5 10 Sudeste 17 Sudeste 0 925.2 0.4 52
2020-01-23 12:00:00 5.2 13 Sudeste 18 Sudeste 0 926 1.8 62
2020-01-23 11:00:00 4.6 12 Sudeste 22 Sur 0 925.3 1.4 59
2020-01-23 10:00:00 3.3 16 Sudeste 21 Sudeste 0 924.8 1.3 63
2020-01-23 09:00:00 2.5 11 Sudeste 18 Sudeste 0 924.2 1 65
2020-01-23 08:00:00 1.4 5 Este 15 Sudeste 0 923.9 0 66
2020-01-23 07:00:00 1.1 10 Sudeste 16 Sudeste 0 923.5 -0.5 68
2020-01-23 06:00:00 0.9 12 Sudeste 14 Este 0 923.2 -0.9 68
2020-01-23 05:00:00 2.2 9 Este 14 Este 0 923.9 0.1 64
2020-01-23 04:00:00 2.1 8 Sudeste 10 Sudeste 0 924 0.2 64
2020-01-23 03:00:00 2.1 5 Este 14 Sudeste 0 924.1 0.2 66
2020-01-23 02:00:00 0.7 13 Sudeste 15 Sudeste 0 923.8 0.1 66
2020-01-23 01:00:00 2.8 5 Nordeste 15 Sudeste 0 923.8 0.4 62
2020-01-23 00:00:00 4.1 6 Sudeste 15 Sudeste 0 923.9 0.6 58
2020-01-22 23:00:00 3.5 4 Nordeste 11 Este 0 923.7 0.6 60
2020-01-22 22:00:00 3.6 3 Nordeste 9 Este 0 923.4 0.9 57
2020-01-22 21:00:00 4 6 Sudeste 15 Este 0 923.3 1.2 55
2020-01-22 20:00:00 4.8 9 Este 12 Este 0 923.1 1.2 53
2020-01-22 19:00:00 5.5 8 Este 10 Este 0 922.5 0.5 50
2020-01-22 18:00:00 6.7 5 Este 19 Sudeste 0 922.1 -0.3 48
2020-01-22 17:00:00 7.4 14 Sudeste 24 Este 0 921.9 -0.8 43
2020-01-22 16:00:00 8.1 10 Este 20 Este 0 922 -1.4 44
2020-01-22 15:00:00 7.4 8 Este 18 Este 0 922.4 -1.3 44
2020-01-22 14:00:00 7.7 14 Este 21 Este 0 922.7 -1 43
2020-01-22 13:00:00 7.8 11 Este 22 Sudeste 0 923.4 -0.3 43
2020-01-22 12:00:00 6.6 11 Este 18 Este 0 923.7 0.4 48
2020-01-22 11:00:00 4.5 6 Nordeste 10 Nordeste 0 923.7 0.5 69
2020-01-22 10:00:00 0.5 3 Nordeste 7 Este 0 923.7 1.4 77
2020-01-22 09:00:00 -0.6 2 Este 7 Nordeste 0 923.3 1.2 77
2020-01-22 08:00:00 -0.9 3 Este 6 Sudoeste 0 923.2 0.8 77
2020-01-22 07:00:00 -1.6 3 Nordeste 5 Nordeste 0 922.3 0.1 77
2020-01-22 06:00:00 -1.1 0 Calma 4 Sudoeste 0 922.1 0.2 77
2020-01-22 05:00:00 -1.5 3 Sudoeste 4 Sudoeste 0 922.4 0.3 77
2020-01-22 04:00:00 -0.6 0 Calma 4 Noroeste 0 922.2 -0.1 76
2020-01-22 03:00:00 -1.1 2 Sudoeste 5 Noroeste 0 921.9 -0.6 76
2020-01-22 02:00:00 -0.3 0 Calma 4 Norte 0 922.1 0.1 75
2020-01-22 01:00:00 0.2 2 Nordeste 5 Norte 0 922.3 0.5 75
2020-01-22 00:00:00 0.1 3 Este 7 Este 0 922.5 1 75
2020-01-21 23:00:00 -0.2 2 Nordeste 11 Nordeste 0 922 0.8 74
2020-01-21 22:00:00 0.4 3 Nordeste 8 Este 0 921.8 0.9 74
2020-01-21 21:00:00 0.6 5 Este 12 Este 0 921.5 1.5 72
2020-01-21 20:00:00 0.7 4 Nordeste 17 Nordeste 0 921.2 1.8 71
2020-01-21 19:00:00 0.5 10 Nordeste 34 Nordeste 0 920.9 2.2 70
2020-01-21 18:00:00 0.6 19 Nordeste 31 Nordeste 0 920 0.5 68
2020-01-21 17:00:00 1.4 16 Norte 28 Norte 0 919.4 -0.6 71
2020-01-21 16:00:00 0.5 17 Nordeste 27 Norte 0 918.7 -2.4 71
2020-01-21 15:00:00 0.5 16 Nordeste 30 Nordeste 0 919.5 -2.4 72
2020-01-21 14:00:00 0.4 16 Nordeste 33 Norte 0.1 920 -2.5 74
2020-01-21 13:00:00 0.2 16 Norte 30 Nordeste 0 921.1 -1.1 74
2020-01-21 12:00:00 -0.2 12 Norte 29 Norte 0 921.9 0.1 76
2020-01-21 11:00:00 -1.2 16 Norte 34 Norte 0 922.5 0.2 77
2020-01-21 10:00:00 -1.6 14 Norte 33 Norte 0.4 922.2 0.3 77
2020-01-21 09:00:00 -2.1 17 Norte 27 Norte 0.3 921.8 -0.3 76
2020-01-21 08:00:00 -1.9 16 Norte 35 Norte 0.2 922.3 -0.6 74
2020-01-21 07:00:00 -0.5 21 Norte 33 Norte 0 921.9 -1.3 75
2020-01-21 06:00:00 -0.4 21 Norte 31 Norte 0 922.1 -1.5 74
2020-01-21 05:00:00 -0.2 10 Norte 26 Norte 0 922.9 -1.1 73
2020-01-21 04:00:00 -0.2 13 Nordeste 26 Nordeste 0 923.2 -1.9 73
2020-01-21 03:00:00 -0.1 12 Norte 25 Nordeste 0 923.6 -1.4 74
2020-01-21 02:00:00 -0.3 13 Nordeste 32 Nordeste 0 924 -0.4 74
2020-01-21 01:00:00 -0.2 21 Nordeste 37 Norte 0 925.1 0.7 74
2020-01-21 00:00:00 -0.1 24 Nordeste 38 Norte 0 925 0.9 74
2020-01-20 23:00:00 0.1 23 Nordeste 40 Norte 0 924.4 0 74
2020-01-20 22:00:00 0.1 24 Nordeste 38 Norte 0 924.4 0.3 75
2020-01-20 21:00:00 0.1 23 Norte 48 Nordeste 0 924.1 0.9 74
2020-01-20 20:00:00 0.8 23 Nordeste 42 Nordeste 0 924.4 0.9 69
2020-01-20 19:00:00 0.2 26 Nordeste 53 Nordeste 0 924.1 1.1 72
2020-01-20 18:00:00 0.8 27 Nordeste 57 Nordeste 0 923.2 -0.3 66
2020-01-20 17:00:00 0.6 20 Nordeste 39 Norte 0 923.5 -0.4 68
2020-01-20 16:00:00 0.2 22 Norte 46 Nordeste 0 923 -2.1 69
2020-01-20 15:00:00 0 27 Nordeste 45 Nordeste 0 923.5 -1.7 69
2020-01-20 14:00:00 -0.5 19 Norte 40 Norte 0 923.9 -1.4 64
2020-01-20 13:00:00 -1.6 26 Norte 43 Norte 0 925.1 0.1 67
2020-01-20 12:00:00 -2.9 28 Norte 45 Norte 0 925.2 0.7 71
2020-01-20 11:00:00 -2.9 23 Norte 40 Norte 0 925.3 0.5 65
2020-01-20 10:00:00 -2.6 24 Norte 43 Norte 0 925 0.1 57
2020-01-20 09:00:00 -2.6 21 Norte 44 Norte 0 924.5 -0.9 54
2020-01-20 08:00:00 -2.7 22 Norte 40 Norte 0 924.8 -0.6 53
2020-01-20 07:00:00 -2.8 24 Norte 49 Norte 0 924.9 -1.2 58
2020-01-20 06:00:00 -3 26 Norte 50 Norte 0 925.4 -1.1 58
2020-01-20 05:00:00 -2.3 26 Norte 46 Norte 0 925.4 -1 53
2020-01-20 04:00:00 -2.3 26 Norte 42 Norte 0 926.1 -0.7 53
2020-01-20 03:00:00 -2.2 25 Norte 45 Norte 0 926.5 -0.5 54
2020-01-20 02:00:00 -1.9 22 Norte 39 Norte 0 926.4 -0.6 56
2020-01-20 01:00:00 -1.7 20 Norte 34 Norte 0 926.8 -0.4 59
2020-01-20 00:00:00 -1.8 22 Norte 42 Norte 0 927 0.8 75
2020-01-19 23:00:00 -1.4 24 Norte 45 Nordeste 0 927 0.5 77
2020-01-19 22:00:00 -1.6 28 Norte 44 Norte 0 927.2 1.3 77
2020-01-19 21:00:00 -1.5 24 Norte 38 Nordeste 0.3 926.2 0.8 77
2020-01-19 20:00:00 -1.8 17 Norte 41 Norte 1.2 926.5 1.5 76
2020-01-19 19:00:00 -0.4 24 Norte 38 Norte 1.2 925.9 1.3 75
2020-01-19 18:00:00 0 24 Norte 44 Norte 0.3 925.4 1.4 74
2020-01-19 17:00:00 0.6 27 Norte 50 Norte 0.2 925 0.5 72
2020-01-19 16:00:00 1.7 25 Norte 50 Norte 0 924.6 -0.7 66
2020-01-19 15:00:00 2.2 32 Norte 47 Norte 0 924 -2.2 59
2020-01-19 14:00:00 2.4 24 Norte 40 Norte 0 924.5 -1.6 66
2020-01-19 13:00:00 2 20 Noroeste 38 Noroeste 0.2 925.3 0 72
2020-01-19 12:00:00 1.7 15 Noroeste 31 Noroeste 1.3 926.2 0.7 72
2020-01-19 11:00:00 2.6 13 Noroeste 24 Noroeste 0.1 926.1 0.5 69
2020-01-19 10:00:00 3 13 Noroeste 21 Noroeste 0 925.3 -0.2 73
2020-01-19 09:00:00 1.8 4 Noroeste 15 Noroeste 0 925.5 0.2 75
2020-01-19 08:00:00 2.3 9 Noroeste 27 Noroeste 0 925.6 0 75
2020-01-19 07:00:00 2.7 13 Noroeste 28 Noroeste 0 925.5 -1.2 76
2020-01-19 06:00:00 3 10 Noroeste 18 Noroeste 0 925.3 -2.1 76
2020-01-19 05:00:00 3.4 7 Noroeste 20 Oeste 0.8 925.6 -2.3 75
2020-01-19 04:00:00 3.1 13 Oeste 27 Oeste 3 926.7 -0.7 74
2020-01-19 03:00:00 4.3 13 Oeste 36 Oeste 0 927.4 -1.1 68
2020-01-19 02:00:00 4.8 19 Oeste 37 Oeste 0 927.9 -0.9 64
2020-01-19 01:00:00 4.5 25 Sudoeste 53 Oeste 0 927.4 -2.2 63
2020-01-19 00:00:00 6 16 Sudoeste 27 Sudoeste 0 928.5 -1.1 71
2020-01-18 23:00:00 5.7 23 Sudoeste 31 Sudoeste 0 928.8 -2 75
2020-01-18 22:00:00 5.9 14 Oeste 32 Sudoeste 0 929.6 -1.5 72
2020-01-18 21:00:00 6.7 9 Oeste 32 Sudoeste 0 929.6 -1.4 74
2020-01-18 20:00:00 6.2 20 Sudoeste 33 Sudoeste 0 930.8 -0.9 74
2020-01-18 19:00:00 5.8 24 Sudoeste 39 Sudoeste 0 931.1 -1.8 73
2020-01-18 18:00:00 6 22 Sudoeste 39 Sudoeste 0 931 -2 69
2020-01-18 17:00:00 6.7 18 Sur 25 Sur 0 931.7 -2.1 66
2020-01-18 16:00:00 6.6 13 Sudoeste 38 Sudoeste 0 932.9 -2.7 66
2020-01-18 15:00:00 6.8 14 Sudoeste 31 Sudoeste 0 933 -3.8 65
2020-01-18 14:00:00 6.1 16 Sur 37 Sur 0 933.8 -3.6 66
2020-01-18 13:00:00 5.9 15 Sur 26 Sur 0 935.6 -1.3 71
2020-01-18 12:00:00 5.6 15 Sur 19 Sur 0 936.8 -0.2 75
2020-01-18 11:00:00 5.1 12 Sur 18 Sudeste 0.1 937.4 0.3 76
2020-01-18 10:00:00 4.5 13 Sudeste 17 Sudeste 0.8 936.9 0.9 77
2020-01-18 09:00:00 4.5 7 Sudeste 10 Este 1.5 937 0.5 76
2020-01-18 08:00:00 4.1 3 Sur 27 Sur 0.1 937.1 0.7 74
2020-01-18 07:00:00 3.6 12 Nordeste 19 Nordeste 0 936 -0.7 74
2020-01-18 06:00:00 4.1 0 Calma 6 Sur 0 936.5 -0.4 74
2020-01-18 05:00:00 3.2 2 Sur 7 Noroeste 0 936.4 -0.5 77
2020-01-18 04:00:00 2.6 3 Oeste 12 Noroeste 0 936.7 -1.1 77
2020-01-18 03:00:00 3.6 5 Oeste 15 Este 0 936.9 -1.7 74
2020-01-18 02:00:00 3.9 13 Este 16 Sudeste 0 936.9 -2.1 73
2020-01-18 01:00:00 4.2 10 Sudeste 13 Sudeste 0 937.8 -1.2 70
2020-01-18 00:00:00 3.4 5 Nordeste 9 Nordeste 0 938.6 0.2 69
2020-01-17 23:00:00 4.3 0 Calma 4 Nordeste 0 939 0.9 66
2020-01-17 22:00:00 4.9 2 Nordeste 6 Oeste 0 939 1 66
2020-01-17 21:00:00 5.5 4 Sudoeste 5 Sudoeste 0 938.4 0.9 64
2020-01-17 20:00:00 6.4 2 Sudoeste 4 Oeste 0 938.1 1.1 61
2020-01-17 19:00:00 7.2 0 Calma 9 Noroeste 0 938 0.9 59
2020-01-17 18:00:00 8.7 6 Noroeste 15 Oeste 0 937.5 0.5 56
2020-01-17 17:00:00 10.2 9 Noroeste 18 Oeste 0 937 -0.3 52
2020-01-17 16:00:00 11 9 Noroeste 21 Oeste 0 937.1 -0.8 51
2020-01-17 15:00:00 10.5 8 Noroeste 23 Noroeste 0 937 -1.6 53
2020-01-17 14:00:00 10.5 17 Oeste 24 Oeste 0 937.3 -0.8 54
2020-01-17 13:00:00 10.8 12 Oeste 24 Sudoeste 0 937.9 0.1 55
2020-01-17 12:00:00 9.4 19 Oeste 32 Oeste 0 938.6 1.7 59
2020-01-17 11:00:00 8.5 22 Oeste 30 Sudoeste 0 938.1 1.3 63
2020-01-17 10:00:00 6.8 12 Sudoeste 22 Sudoeste 0 937.8 1.8 69
2020-01-17 09:00:00 5.1 14 Sudoeste 19 Oeste 0 936.9 1.2 68
2020-01-17 08:00:00 5.6 10 Oeste 20 Sudoeste 0 936.8 1.5 66
2020-01-17 07:00:00 6.1 12 Sudoeste 26 Sudoeste 0 936 0.3 59
2020-01-17 06:00:00 6 14 Oeste 22 Sudoeste 0 935.7 0.3 53
2020-01-17 05:00:00 4.8 7 Sudoeste 21 Sudoeste 0 935.3 -0.3 53
2020-01-17 04:00:00 4.6 12 Sudoeste 20 Sudoeste 0 935.7 0.3 51
2020-01-17 03:00:00 4.1 5 Sudoeste 15 Sudoeste 0 935.4 -0.3 51
2020-01-17 02:00:00 5.1 5 Oeste 23 Oeste 0 935.6 0.2 51
2020-01-17 01:00:00 3.2 9 Sudoeste 17 Sudoeste 0 935.4 0.4 54
2020-01-17 00:00:00 5.3 8 Oeste 18 Sudoeste 0 935.7 1.2 49
2020-01-16 23:00:00 4.7 14 Sudoeste 20 Sudoeste 0 935.4 1 49
2020-01-16 22:00:00 5.8 3 Oeste 17 Sudoeste 0 935 1 49
2020-01-16 21:00:00 4.7 10 Sudoeste 14 Sudoeste 0 934.5 1.1 49
2020-01-16 20:00:00 6.4 5 Sudoeste 10 Sur 0 934.4 0.8 48
2020-01-16 19:00:00 6.4 7 Sur 19 Sudoeste 0 934 1.3 48
2020-01-16 18:00:00 8.4 7 Sudoeste 23 Sur 0 933.4 0.3 46
2020-01-16 17:00:00 10.3 17 Sudoeste 27 Sudoeste 0 933.6 -- 41
2020-01-16 16:00:00 11.8 13 Sudoeste 20 Sudoeste 0 932.7 -1.5 41
2020-01-16 15:00:00 11.8 14 Sudoeste 22 Sudoeste 0 933.1 -1.7 41
2020-01-16 14:00:00 -- 17 Sudoeste 23 Sudoeste 0 -- -- --
2020-01-16 13:00:00 11.2 14 Sur 21 Sudoeste 0 934.2 -0.7 43
2020-01-16 12:00:00 10 4 Sudeste 10 Sur 0 934.8 0.2 62
2020-01-16 11:00:00 6.7 0 Calma 5 Nordeste 0 935.2 0.8 83
2020-01-16 10:00:00 3 0 Calma 8 Nordeste 0 934.9 0.8 87
2020-01-16 09:00:00 -0.6 6 Nordeste 8 Nordeste 0 934.6 0.6 87
2020-01-16 08:00:00 -0.6 7 Nordeste 8 Este 0 934.4 0.2 87
2020-01-16 07:00:00 0.9 5 Este 8 Este 0 934.1 -0.6 87
2020-01-16 06:00:00 1.1 5 Nordeste 13 Este 0 934 -0.6 87
2020-01-16 05:00:00 0.9 6 Nordeste 9 Este 0 934.2 -0.2 87
2020-01-16 04:00:00 2 5 Este 7 Nordeste 0 934.7 0.1 87
2020-01-16 03:00:00 2.3 5 Nordeste 6 Nordeste 0 934.6 -0.4 85
2020-01-16 02:00:00 3.5 0 Calma 4 Nordeste 0 934.4 -0.4 84
2020-01-16 01:00:00 3.7 4 Nordeste 5 Este 0 934.6 0.3 81
2020-01-16 00:00:00 4.7 0 Calma 7 Nordeste 0 935 0.7 80
2020-01-15 23:00:00 3.8 4 Norte 6 Nordeste 0 934.8 0.8 79
2020-01-15 22:00:00 4.6 0 Calma 7 Nordeste 0 934.3 0.4 75
2020-01-15 21:00:00 5.8 0 Calma 12 Sudeste 0 934.3 1 71
2020-01-15 20:00:00 6.3 10 Sudeste 13 Sudeste 0 934 1.5 72
2020-01-15 19:00:00 6.6 10 Sudeste 14 Sudeste 0 933.9 1.1 69
2020-01-15 18:00:00 8.4 3 Sur 21 Sudoeste 0 933.3 0.6 60
2020-01-15 17:00:00 9.5 13 Sudoeste 23 Sudoeste 0 932.5 -0.2 51
2020-01-15 16:00:00 10.3 13 Sudoeste 24 Sudoeste 0 932.8 -0.1 49
2020-01-15 15:00:00 10.6 18 Sudoeste 31 Sudoeste 0 932.7 -0.3 48
2020-01-15 14:00:00 10.2 19 Sudoeste 31 Sudoeste 0 932.7 0.1 48
2020-01-15 13:00:00 9.4 22 Oeste 31 Sudoeste 0 932.9 1.1 47
2020-01-15 12:00:00 9 8 Sur 25 Sudoeste 0 933 1.2 55
2020-01-15 11:00:00 6.6 9 Sudeste 16 Sudeste 0 932.6 1.1 76
2020-01-15 10:00:00 3.3 5 Este 16 Sudeste 0 931.8 0.8 87
2020-01-15 09:00:00 1.3 7 Este 17 Sudeste 0 931.8 1.3 87
2020-01-15 08:00:00 0.4 10 Sudeste 13 Sudeste 0 931.5 0.9 87
2020-01-15 07:00:00 -0.6 5 Este 10 Este 0 931 0.2 87
2020-01-15 06:00:00 0.1 2 Norte 11 Sudeste 0 930.5 -0.5 87
2020-01-15 05:00:00 0.7 9 Este 10 Este 0 930.6 0 87
2020-01-15 04:00:00 -0.2 5 Norte 8 Norte 0 930.8 -0.3 87
2020-01-15 03:00:00 0.7 2 Sur 7 Sudoeste 0 931 0 86
2020-01-15 02:00:00 1.8 3 Sudoeste 8 Sudoeste 0 930.6 -0.1 86
2020-01-15 01:00:00 1.6 4 Oeste 9 Oeste 0 931.1 0.3 87
2020-01-15 00:00:00 0.6 0 Calma 6 Sudeste 0 931 0.3 86
2020-01-14 23:00:00 1.3 5 Este 8 Este 0 930.7 0.7 85
2020-01-14 22:00:00 1.6 0 Calma 4 Nordeste 0 930.8 0.8 84
2020-01-14 21:00:00 2.3 0 Calma 7 Noroeste 0 930.7 1.1 83
2020-01-14 20:00:00 2.8 7 Sudeste 12 Sudeste 0 930 0.8 81
2020-01-14 19:00:00 3.7 3 Sur 8 Sur 0 930 0.9 77
2020-01-14 18:00:00 4.1 6 Sudoeste 19 Sudoeste 0 929.6 0.5 73
2020-01-14 17:00:00 6.2 14 Sudoeste 20 Sudoeste 0 929.2 -0.3 57
2020-01-14 16:00:00 7.3 8 Noroeste 16 Noroeste 0 929.1 -1.5 61
2020-01-14 15:00:00 7.5 4 Norte 13 Oeste 0 929.1 -1.3 60
2020-01-14 14:00:00 7.2 4 Noroeste 12 Oeste 0 929.5 -1.3 66
2020-01-14 13:00:00 6.7 3 Noroeste 10 Sudoeste 0 930.6 0 65
2020-01-14 12:00:00 5.1 4 Noroeste 8 Norte 0 930.4 0.2 75
2020-01-14 11:00:00 0.3 3 Nordeste 5 Nordeste 0 930.8 0.5 87
2020-01-14 10:00:00 -2.5 4 Nordeste 9 Nordeste 0 930.6 0.7 87
2020-01-14 09:00:00 -4.2 2 Nordeste 5 Nordeste 0 930.2 0.7 87
2020-01-14 08:00:00 -3.6 5 Nordeste 7 Nordeste 0 930.3 0 87
2020-01-14 07:00:00 -3.5 3 Nordeste 4 Nordeste 0 929.9 -0.6 87
2020-01-14 06:00:00 -3.4 2 Nordeste 9 Nordeste 0 929.5 -0.9 87
2020-01-14 05:00:00 -3.1 5 Nordeste 6 Nordeste 0 930.3 -0.6 87
2020-01-14 04:00:00 -2.6 0 Calma 6 Norte 0 930.5 -0.6 87
2020-01-14 03:00:00 -2.7 3 Nordeste 8 Nordeste 0 930.4 -0.9 87
2020-01-14 02:00:00 -1.8 0 Calma 5 Sur 0 930.9 -0.6 86
2020-01-14 01:00:00 -1.6 4 Nordeste 7 Norte 0 931.1 -0.4 86
2020-01-14 00:00:00 0.6 4 Este 7 Este 0 931.3 -0.1 81
2020-01-13 23:00:00 1.1 0 Calma 3 Este 0 931.5 0.1 81
2020-01-13 22:00:00 1.3 2 Norte 6 Norte 0 931.5 0.3 81
2020-01-13 21:00:00 2.6 0 Calma 5 Sur 0 931.4 0.3 75
2020-01-13 20:00:00 3 0 Calma 5 Sudoeste 0 931.4 0.5 68
2020-01-13 19:00:00 3.8 5 Sudoeste 10 Sudoeste 0 931.2 0.4 65
2020-01-13 18:00:00 5.1 8 Sudoeste 14 Oeste 0 931.1 0.4 62
2020-01-13 17:00:00 7.2 11 Oeste 15 Oeste 0 930.9 -1 49
2020-01-13 16:00:00 8.8 9 Sudoeste 15 Sur 0 930.8 -2.1 44
2020-01-13 15:00:00 8.5 9 Sudoeste 19 Sudoeste 0 930.7 -2.9 50
2020-01-13 14:00:00 8.6 3 Noroeste 6 Noroeste 0 931.9 -1.7 54
2020-01-13 13:00:00 7.5 2 Norte 5 Noroeste 0 932.9 0.1 59
2020-01-13 12:00:00 5.6 0 Calma 4 Sudeste 0 933.6 0.6 65
2020-01-13 11:00:00 2.5 2 Sudeste 5 Sudoeste 0 933.6 0.7 84
2020-01-13 10:00:00 -1.1 0 Calma 7 Nordeste 0 932.8 -0.3 87
2020-01-13 09:00:00 -4 4 Norte 5 Nordeste 0 933 0 87
2020-01-13 08:00:00 -3.9 0 Calma 5 Nordeste 0 932.9 -0.4 87
2020-01-13 07:00:00 -3.8 3 Norte 9 Nordeste 0 933.1 -1 87
2020-01-13 06:00:00 -3.5 6 Nordeste 9 Nordeste 0 933 -1.3 87
2020-01-13 05:00:00 -2.8 0 Calma 4 Sur 0 933.3 -1 87
2020-01-13 04:00:00 -2.7 0 Calma 6 Nordeste 0 934.1 -1 87
2020-01-13 03:00:00 -2.7 5 Nordeste 6 Nordeste 0 934.3 -1.1 85
2020-01-13 02:00:00 -0.2 2 Sur 3 Sur 0 934.3 -1.6 82
2020-01-13 01:00:00 0.1 0 Calma 3 Sudoeste 0 935.1 -0.5 82
2020-01-13 00:00:00 -0.3 4 Nordeste 5 Nordeste 0 935.4 -0.4 82
2020-01-12 23:00:00 1.4 0 Calma 3 Sudoeste 0 935.9 0.3 77
2020-01-12 22:00:00 1.4 3 Sudoeste 5 Sur 0 935.6 0.6 75
2020-01-12 21:00:00 3.2 0 Calma 3 Sur 0 935.8 1 70
2020-01-12 20:00:00 2.9 3 Sudoeste 4 Sudoeste 0 935.6 0.8 68
2020-01-12 19:00:00 5 0 Calma 6 Noroeste 0 935 0 59
2020-01-12 18:00:00 7.3 4 Norte 12 Norte 0 934.8 -0.1 46
2020-01-12 17:00:00 8.2 6 Norte 12 Norte 0 934.8 -0.5 44
2020-01-12 16:00:00 10.4 3 Noroeste 11 Oeste 0 935 -1.5 43
2020-01-12 15:00:00 9.7 4 Oeste 11 Noroeste 0 934.9 -2.6 46
2020-01-12 14:00:00 8.6 5 Noroeste 12 Noroeste 0 935.3 -2.2 51
2020-01-12 13:00:00 7 3 Noroeste 8 Noroeste 0 936.5 -0.5 65
2020-01-12 12:00:00 5.4 3 Nordeste 6 Norte 0 937.5 0.9 69
2020-01-12 11:00:00 4.2 0 Calma 5 Norte 0 937.5 0.6 84
2020-01-12 10:00:00 -1.5 0 Calma 3 Norte 0 937 0.3 87
2020-01-12 09:00:00 -2 0 Calma 2 Nordeste 0 936.6 0.1 87
2020-01-12 08:00:00 -1.9 0 Calma -- -- 0 936.9 0.4 87
2020-01-12 07:00:00 -1.9 0 Calma 5 Nordeste 0 936.7 -0.2 87
2020-01-12 06:00:00 -2.4 4 Nordeste 5 Nordeste 0 936.5 -0.2 87
2020-01-12 05:00:00 -1.8 0 Calma 6 Sudoeste 0 936.5 0 87
2020-01-12 04:00:00 -2.8 0 Calma 4 Nordeste 0 936.9 -0.1 87
2020-01-12 03:00:00 -1.6 0 Calma 4 Sudeste 0 936.7 -0.6 86
2020-01-12 02:00:00 -0.5 2 Nordeste 4 Nordeste 0 936.5 -1 85
2020-01-12 01:00:00 -0.2 0 Calma 4 Sur 0 937 -0.1 84
2020-01-12 00:00:00 0.2 3 Sudoeste 5 Sudoeste 0 937.3 0.3 84
2020-01-11 23:00:00 0.1 5 Sudoeste 6 Sudoeste 0 937.5 1 84
2020-01-11 22:00:00 1.7 2 Sudoeste 5 Sudoeste 0 937.1 1.1 83
2020-01-11 21:00:00 1.4 2 Sudoeste 6 Sudoeste 0 937 1.4 84
2020-01-11 20:00:00 0.5 4 Sudoeste 6 Sudoeste 0 936.5 1.3 81
2020-01-11 19:00:00 4.3 5 Norte 9 Norte 0 936 0.7 71
2020-01-11 18:00:00 6.2 6 Norte 12 Norte 0 935.6 0.3 62
2020-01-11 17:00:00 7.5 7 Norte 12 Noroeste 0 935.2 -0.8 58
2020-01-11 16:00:00 7.8 3 Norte 10 Noroeste 0 935.3 -1.3 57
2020-01-11 15:00:00 7.3 5 Norte 12 Norte 0 935.3 -2.1 62
2020-01-11 14:00:00 5.6 5 Norte 11 Norte 0 936 -1.5 65
2020-01-11 13:00:00 5.1 3 Noroeste 8 Oeste 0 936.6 -0.5 70
2020-01-11 12:00:00 2.6 3 Norte 8 Norte 0 937.4 0.8 77
2020-01-11 11:00:00 0.1 4 Noroeste 8 Noroeste 0 937.5 1.3 85
2020-01-11 10:00:00 -1.9 2 Sudoeste 8 Oeste 0 937.1 1.3 87
2020-01-11 09:00:00 -3.8 5 Oeste 9 Oeste 0 936.6 0.9 87
2020-01-11 08:00:00 -3.2 0 Calma 5 Noroeste 0 936.2 0.6 87
2020-01-11 07:00:00 -3.2 0 Calma 4 Norte 0 935.8 0.3 87
2020-01-11 06:00:00 -2.7 0 Calma 5 Noroeste 0 935.7 0.3 85
2020-01-11 05:00:00 -2.3 3 Sudoeste 5 Norte 0 935.6 0.4 84
2020-01-11 04:00:00 -1.3 0 Calma 6 Noroeste 0 935.5 0.4 82
2020-01-11 03:00:00 -0.9 2 Sudoeste 5 Sudoeste 0 935.4 0.2 83
2020-01-11 02:00:00 0 4 Oeste 9 Este 0 935.2 -0.1 80
2020-01-11 01:00:00 0.2 5 Este 9 Nordeste 0 935.1 0.1 79
2020-01-11 00:00:00 0.6 0 Calma 5 Norte 0 935.2 1.3 79
2020-01-10 23:00:00 1.5 6 Norte 18 Norte 0 935.3 1.3 75
2020-01-10 22:00:00 1.2 11 Norte 27 Nordeste 0 935 1.5 73
2020-01-10 21:00:00 2.4 17 Norte 25 Norte 0 933.9 0.9 65
2020-01-10 20:00:00 2.7 8 Norte 14 Norte 0 934 1.8 64
2020-01-10 19:00:00 3.3 9 Norte 26 Norte 0 933.5 1.4 64
2020-01-10 18:00:00 4.6 16 Norte 38 Norte 0 933 0.7 60
2020-01-10 17:00:00 5.8 20 Norte 36 Norte 0 932.2 -0.4 53
2020-01-10 16:00:00 6 20 Norte 39 Norte 0 932.1 -1.6 55
2020-01-10 15:00:00 6.3 23 Norte 37 Norte 0 932.3 -1.3 54
2020-01-10 14:00:00 6.2 21 Norte 35 Norte 0 932.6 -1.4 55
2020-01-10 13:00:00 5.5 16 Norte 27 Norte 0 933.7 0.1 65
2020-01-10 12:00:00 4.4 8 Norte 26 Norte 0 933.6 0.5 74
2020-01-10 11:00:00 3.2 14 Norte 24 Norte 0 934 2.1 79
2020-01-10 10:00:00 2.6 6 Norte 13 Norte 0 933.6 1.9 87
2020-01-10 09:00:00 2.4 5 Norte 11 Norte 0 933.1 1.5 87
2020-01-10 08:00:00 3.2 5 Noroeste 10 Noroeste 0 931.9 -0.2 87
2020-01-10 07:00:00 3.5 3 Oeste 6 Oeste 0 931.7 -0.2 87
2020-01-10 06:00:00 2.8 3 Oeste 6 Oeste 0 931.6 -0.6 87
2020-01-10 05:00:00 2.9 3 Noroeste 9 Oeste 0 932.1 -0.1 87
2020-01-10 04:00:00 1.7 0 Calma 4 Nordeste 0 931.9 -0.6 87
2020-01-10 03:00:00 1.4 3 Norte 6 Nordeste 0 932.2 -0.9 87
2020-01-10 02:00:00 1.7 0 Calma 4 Norte 0 932.2 -1.1 87
2020-01-10 01:00:00 1.8 0 Calma 9 Este 0 932.5 -0.7 87
2020-01-10 00:00:00 3 0 Calma 6 Sur 0 933.1 0.5 87
2020-01-09 23:00:00 2.3 5 Oeste 17 Oeste 0 933.3 0.5 87
2020-01-09 22:00:00 2.4 10 Noroeste 17 Noroeste 0 933.2 0.6 87
2020-01-09 21:00:00 4.3 2 Sur 12 Sudeste 0 932.6 0.5 87
2020-01-09 20:00:00 5 8 Sudeste 11 Sudeste 0 932.8 0.6 87
2020-01-09 19:00:00 7.8 3 Noroeste 8 Noroeste 0 932.6 0.7 79
2020-01-09 18:00:00 8.9 5 Noroeste 15 Oeste 0 932.1 0.1 60
2020-01-09 17:00:00 12.1 3 Oeste 8 Noroeste 0 932.2 -0.6 57
2020-01-09 16:00:00 11.8 2 Nordeste 10 Noroeste 0 931.9 -1.4 53
2020-01-09 15:00:00 11.3 4 Noroeste 14 Oeste 0 932 -1.9 51
2020-01-09 14:00:00 10.9 8 Noroeste 14 Noroeste 0 932.8 -1.1 54
2020-01-09 13:00:00 9.7 0 Calma 6 Nordeste 0 933.3 -0.1 63
2020-01-09 12:00:00 8.2 3 Norte 5 Nordeste 0 933.9 0.8 69
2020-01-09 11:00:00 5.7 3 Nordeste 6 Nordeste 0 933.9 0.6 82
2020-01-09 10:00:00 0.5 3 Nordeste 5 Nordeste 0 933.4 0.6 87
2020-01-09 09:00:00 0.2 0 Calma 3 Norte 0 933.1 0 87
2020-01-09 08:00:00 0.3 0 Calma 4 Norte 0 933.3 0.2 87
2020-01-09 07:00:00 -0.1 3 Nordeste 8 Nordeste 0 932.8 -0.9 87
2020-01-09 06:00:00 1 4 Nordeste 6 Nordeste 0 933.1 -0.8 87
2020-01-09 05:00:00 1.5 0 Calma 3 Norte 0 933.1 -0.6 87
2020-01-09 04:00:00 1.6 0 Calma 5 Sudoeste 0 933.7 -0.5 87
2020-01-09 03:00:00 1 0 Calma 6 Nordeste 0 933.9 -0.6 87
2020-01-09 02:00:00 1.3 2 Nordeste 7 Nordeste 0 933.7 -1.2 84
2020-01-09 01:00:00 2.8 0 Calma 3 Sur 0 934.2 -0.2 81
2020-01-09 00:00:00 2.5 0 Calma 3 Sur 0 934.5 0.1 83
2020-01-08 23:00:00 2.7 0 Calma 4 Este 0 934.9 0.4 79
2020-01-08 22:00:00 5 2 Sur 5 Sudoeste 0 934.4 0 72
2020-01-08 21:00:00 5.1 4 Sudoeste 5 Sudoeste 0 934.4 0.4 71
2020-01-08 20:00:00 7.4 0 Calma 4 Norte 0 934.5 0.5 65
2020-01-08 19:00:00 7.6 2 Sur 6 Oeste 0 934.4 0.3 66
2020-01-08 18:00:00 11.9 0 Calma 8 Norte 0 934 -0.2 53
2020-01-08 17:00:00 11.4 5 Norte 9 Nordeste 0 934 -0.7 51
2020-01-08 16:00:00 11.8 5 Norte 9 Norte 0 934.1 -1.2 45
2020-01-08 15:00:00 11.4 5 Norte 9 Norte 0 934.2 -1.4 48
2020-01-08 14:00:00 11.2 4 Norte 8 Norte 0 934.7 -1 51
2020-01-08 13:00:00 10.4 0 Calma 6 Oeste 0 935.3 -0.4 54
2020-01-08 12:00:00 8.5 3 Sudoeste 7 Sudoeste 0 935.6 0.4 36
2020-01-08 11:00:00 6.1 2 Sudoeste 5 Sudoeste 0 935.7 0.6 43
2020-01-08 10:00:00 3.4 0 Calma 3 Este 0 935.7 0.7 41
2020-01-08 09:00:00 1 4 Este 4 Este 0 935.2 -0.1 45
2020-01-08 08:00:00 0 0 Calma 6 Nordeste 0 935.1 -0.6 44
2020-01-08 07:00:00 0.7 0 Calma 5 Sur 0 935 -0.6 40
2020-01-08 06:00:00 1.9 0 Calma 0 Calma 0 935.3 -0.2 39
2020-01-08 05:00:00 0.8 2 Nordeste 5 Nordeste 0 935.7 0.2 44
2020-01-08 04:00:00 1.1 2 Sudoeste 5 Sudoeste 0 935.6 -0.5 37
2020-01-08 03:00:00 2.4 0 Calma 4 Sur 0 935.5 -0.6 37
2020-01-08 02:00:00 2.3 0 Calma 4 Sudoeste 0 935.5 -0.9 36
2020-01-08 01:00:00 2.1 3 Oeste 5 Sudoeste 0 936.1 -0.7 40
2020-01-08 00:00:00 1.9 4 Sudoeste 5 Sudoeste 0 936.1 -0.5 42
2020-01-07 23:00:00 3.7 0 Calma 5 Sudoeste 0 936.4 0.2 40
2020-01-07 22:00:00 4.7 0 Calma 0 Calma 0 936.8 0.9 43
2020-01-07 21:00:00 4.6 2 Sudeste 4 Norte 0 936.6 0.9 44
2020-01-07 20:00:00 6.2 0 Calma 6 Sudoeste 0 936.2 0.2 41
2020-01-07 19:00:00 6.4 4 Sudoeste 8 Oeste 0 935.9 0.3 37
2020-01-07 18:00:00 10.1 4 Norte 8 Norte 0 935.7 0 29
2020-01-07 17:00:00 11 4 Norte 9 Norte 0 936 -0.2 23
2020-01-07 16:00:00 11.4 3 Norte 9 Norte 0 935.6 -1.6 25
2020-01-07 15:00:00 10.8 5 Norte 9 Nordeste 0 935.7 -2.5 26
2020-01-07 14:00:00 9.7 4 Norte 11 Nordeste 0 936.2 -1.5 30
2020-01-07 13:00:00 8.4 5 Norte 9 Norte 0 937.2 0 34
2020-01-07 12:00:00 7.8 0 Calma 4 Norte 0 938.2 1.3 36
2020-01-07 11:00:00 5.3 0 Calma 5 Sur 0 937.7 1 53
2020-01-07 10:00:00 1.2 0 Calma 5 Sudoeste 0 937.2 0.7 60
2020-01-07 09:00:00 -0.7 3 Norte 6 Sur 0 936.9 0.7 62
2020-01-07 08:00:00 -0.9 4 Norte 7 Norte 0 936.7 0.1 60
2020-01-07 07:00:00 -0.4 0 Calma 5 Sudoeste 0 936.5 -0.3 61
2020-01-07 06:00:00 0.1 4 Sudoeste 6 Sudoeste 0 936.2 -0.4 59
2020-01-07 05:00:00 1.2 3 Sudoeste 6 Sur 0 936.6 0.4 59
2020-01-07 04:00:00 0 2 Sur 5 Norte 0 936.8 0.5 61
2020-01-07 03:00:00 1 0 Calma 7 Nordeste 0 936.6 0.1 58
2020-01-07 02:00:00 2.1 0 Calma 4 Sur 0 936.2 -0.1 57
2020-01-07 01:00:00 1 4 Sudoeste 6 Norte 0 936.3 0.5 59
2020-01-07 00:00:00 1.2 3 Noroeste 7 Norte 0 936.5 0.9 56
2020-01-06 23:00:00 0 6 Sudoeste 7 Sudoeste 0 936.3 1.1 58
2020-01-06 22:00:00 2.1 5 Sur 6 Sur 0 935.8 1 56
2020-01-06 21:00:00 3.9 4 Norte 5 Sur 0 935.6 1.3 51
2020-01-06 20:00:00 4.7 4 Sur 5 Sur 0 935.2 1 47
2020-01-06 19:00:00 6.5 2 Sudoeste 6 Norte 0 934.8 0.9 40
2020-01-06 18:00:00 9.6 3 Norte 5 Nordeste 0 934.3 0.2 33
2020-01-06 17:00:00 10.2 4 Norte 8 Nordeste 0 934.2 0.2 31
2020-01-06 16:00:00 10.9 3 Norte 8 Noroeste 0 933.9 -0.8 32
2020-01-06 15:00:00 11.5 6 Oeste 13 Noroeste 0 934.1 -0.9 32
2020-01-06 14:00:00 11.2 3 Noroeste 7 Oeste 0 934 -1 33
2020-01-06 13:00:00 8.2 4 Noroeste 7 Noroeste 0 934.7 -0.5 40
2020-01-06 12:00:00 6.2 4 Noroeste 6 Noroeste 0 935 0.5 46
2020-01-06 11:00:00 5.2 0 Calma 4 Nordeste 0 935 0.6 53
2020-01-06 10:00:00 0.9 0 Calma 3 Sudoeste 0 935.2 1.3 60